sensor_id;sensor_type;location;lat;lon;timestamp;P1;durP1;ratioP1;P2;durP2;ratioP2
45342;SDS011;31077;50.872;4.352;2022-12-07T00:01:16;4.30;;;3.00;;
45342;SDS011;31077;50.872;4.352;2022-12-07T00:03:45;5.70;;;3.72;;
45342;SDS011;31077;50.872;4.352;2022-12-07T00:06:12;4.25;;;3.08;;
45342;SDS011;31077;50.872;4.352;2022-12-07T00:08:39;4.60;;;3.03;;
45342;SDS011;31077;50.872;4.352;2022-12-07T00:11:06;7.65;;;3.50;;
45342;SDS011;31077;50.872;4.352;2022-12-07T00:13:34;5.53;;;3.40;;
45342;SDS011;31077;50.872;4.352;2022-12-07T00:16:05;4.40;;;3.33;;
45342;SDS011;31077;50.872;4.352;2022-12-07T00:18:31;4.78;;;3.25;;
45342;SDS011;31077;50.872;4.352;2022-12-07T00:21:04;4.78;;;3.30;;
45342;SDS011;31077;50.872;4.352;2022-12-07T00:23:35;6.07;;;3.33;;
45342;SDS011;31077;50.872;4.352;2022-12-07T00:26:12;4.85;;;3.50;;
45342;SDS011;31077;50.872;4.352;2022-12-07T00:28:49;6.85;;;3.70;;
45342;SDS011;31077;50.872;4.352;2022-12-07T00:31:17;5.18;;;3.00;;
45342;SDS011;31077;50.872;4.352;2022-12-07T00:33:44;4.72;;;3.33;;
45342;SDS011;31077;50.872;4.352;2022-12-07T00:36:11;4.93;;;3.25;;
45342;SDS011;31077;50.872;4.352;2022-12-07T00:38:39;4.68;;;3.40;;
45342;SDS011;31077;50.872;4.352;2022-12-07T00:41:06;5.55;;;3.80;;
45342;SDS011;31077;50.872;4.352;2022-12-07T00:43:35;5.07;;;3.20;;
45342;SDS011;31077;50.872;4.352;2022-12-07T00:46:04;5.18;;;3.10;;
45342;SDS011;31077;50.872;4.352;2022-12-07T00:48:39;5.45;;;2.88;;
45342;SDS011;31077;50.872;4.352;2022-12-07T00:51:05;6.15;;;3.58;;
45342;SDS011;31077;50.872;4.352;2022-12-07T00:53:35;5.28;;;3.20;;
45342;SDS011;31077;50.872;4.352;2022-12-07T00:56:06;6.05;;;3.35;;
45342;SDS011;31077;50.872;4.352;2022-12-07T00:58:36;6.95;;;3.25;;
45342;SDS011;31077;50.872;4.352;2022-12-07T01:01:03;4.82;;;3.50;;
45342;SDS011;31077;50.872;4.352;2022-12-07T01:03:30;6.22;;;3.28;;
45342;SDS011;31077;50.872;4.352;2022-12-07T01:05:57;3.55;;;2.92;;
45342;SDS011;31077;50.872;4.352;2022-12-07T01:08:31;4.75;;;3.42;;
45342;SDS011;31077;50.872;4.352;2022-12-07T01:11:02;3.65;;;2.95;;
45342;SDS011;31077;50.872;4.352;2022-12-07T01:13:33;6.87;;;3.50;;
45342;SDS011;31077;50.872;4.352;2022-12-07T01:16:01;6.07;;;3.50;;
45342;SDS011;31077;50.872;4.352;2022-12-07T01:18:33;4.63;;;3.42;;
45342;SDS011;31077;50.872;4.352;2022-12-07T01:21:23;7.65;;;3.65;;
45342;SDS011;31077;50.872;4.352;2022-12-07T01:23:48;6.07;;;3.88;;
45342;SDS011;31077;50.872;4.352;2022-12-07T01:26:16;7.80;;;3.47;;
45342;SDS011;31077;50.872;4.352;2022-12-07T01:28:45;5.30;;;3.65;;
45342;SDS011;31077;50.872;4.352;2022-12-07T01:31:17;5.80;;;3.88;;
45342;SDS011;31077;50.872;4.352;2022-12-07T01:33:46;6.35;;;3.60;;
45342;SDS011;31077;50.872;4.352;2022-12-07T01:36:17;5.22;;;3.85;;
45342;SDS011;31077;50.872;4.352;2022-12-07T01:38:45;5.20;;;3.50;;
45342;SDS011;31077;50.872;4.352;2022-12-07T01:41:13;5.60;;;3.65;;
45342;SDS011;31077;50.872;4.352;2022-12-07T01:46:36;6.05;;;3.33;;
45342;SDS011;31077;50.872;4.352;2022-12-07T01:49:03;4.03;;;3.10;;
45342;SDS011;31077;50.872;4.352;2022-12-07T01:51:30;7.22;;;3.83;;
45342;SDS011;31077;50.872;4.352;2022-12-07T01:53:56;4.50;;;3.35;;
45342;SDS011;31077;50.872;4.352;2022-12-07T01:56:23;4.78;;;3.35;;
45342;SDS011;31077;50.872;4.352;2022-12-07T01:58:51;6.10;;;3.40;;
45342;SDS011;31077;50.872;4.352;2022-12-07T02:01:20;6.38;;;3.65;;
45342;SDS011;31077;50.872;4.352;2022-12-07T02:03:46;4.22;;;2.95;;
45342;SDS011;31077;50.872;4.352;2022-12-07T02:06:14;5.70;;;3.63;;
45342;SDS011;31077;50.872;4.352;2022-12-07T02:08:44;6.30;;;3.35;;
45342;SDS011;31077;50.872;4.352;2022-12-07T02:11:11;5.82;;;3.80;;
45342;SDS011;31077;50.872;4.352;2022-12-07T02:13:38;5.25;;;3.47;;
45342;SDS011;31077;50.872;4.352;2022-12-07T02:22:14;5.15;;;3.25;;
45342;SDS011;31077;50.872;4.352;2022-12-07T02:24:57;4.97;;;3.47;;
45342;SDS011;31077;50.872;4.352;2022-12-07T02:27:45;7.13;;;3.45;;
45342;SDS011;31077;50.872;4.352;2022-12-07T02:30:21;5.75;;;3.42;;
45342;SDS011;31077;50.872;4.352;2022-12-07T02:32:56;6.50;;;3.80;;
45342;SDS011;31077;50.872;4.352;2022-12-07T02:38:14;7.50;;;3.42;;
45342;SDS011;31077;50.872;4.352;2022-12-07T02:40:55;6.45;;;3.97;;
45342;SDS011;31077;50.872;4.352;2022-12-07T02:43:34;4.82;;;3.53;;
45342;SDS011;31077;50.872;4.352;2022-12-07T02:46:12;4.25;;;3.30;;
45342;SDS011;31077;50.872;4.352;2022-12-07T02:48:40;5.10;;;3.45;;
45342;SDS011;31077;50.872;4.352;2022-12-07T02:51:10;5.45;;;3.70;;
45342;SDS011;31077;50.872;4.352;2022-12-07T02:53:40;4.88;;;3.40;;
45342;SDS011;31077;50.872;4.352;2022-12-07T03:01:50;8.10;;;3.55;;
45342;SDS011;31077;50.872;4.352;2022-12-07T03:19:03;4.45;;;3.25;;
45342;SDS011;31077;50.872;4.352;2022-12-07T03:21:44;5.20;;;3.55;;
45342;SDS011;31077;50.872;4.352;2022-12-07T03:24:15;5.60;;;3.38;;
45342;SDS011;31077;50.872;4.352;2022-12-07T03:26:47;5.18;;;3.50;;
45342;SDS011;31077;50.872;4.352;2022-12-07T03:29:22;5.18;;;3.47;;
45342;SDS011;31077;50.872;4.352;2022-12-07T03:32:16;4.75;;;3.00;;
45342;SDS011;31077;50.872;4.352;2022-12-07T03:35:18;5.75;;;3.75;;
45342;SDS011;31077;50.872;4.352;2022-12-07T03:40:50;5.18;;;3.03;;
45342;SDS011;31077;50.872;4.352;2022-12-07T03:43:31;4.25;;;3.20;;
45342;SDS011;31077;50.872;4.352;2022-12-07T03:46:15;4.57;;;3.35;;
45342;SDS011;31077;50.872;4.352;2022-12-07T03:51:20;5.68;;;3.65;;
45342;SDS011;31077;50.872;4.352;2022-12-07T03:54:00;4.68;;;2.78;;
45342;SDS011;31077;50.872;4.352;2022-12-07T03:56:34;6.13;;;3.13;;
45342;SDS011;31077;50.872;4.352;2022-12-07T03:59:01;5.20;;;2.95;;
45342;SDS011;31077;50.872;4.352;2022-12-07T04:01:27;6.53;;;3.55;;
45342;SDS011;31077;50.872;4.352;2022-12-07T04:03:55;4.78;;;3.20;;
45342;SDS011;31077;50.872;4.352;2022-12-07T04:06:21;4.68;;;3.25;;
45342;SDS011;31077;50.872;4.352;2022-12-07T04:08:47;5.40;;;3.33;;
45342;SDS011;31077;50.872;4.352;2022-12-07T04:11:13;4.13;;;3.42;;
45342;SDS011;31077;50.872;4.352;2022-12-07T04:13:39;5.05;;;3.22;;
45342;SDS011;31077;50.872;4.352;2022-12-07T04:16:23;4.55;;;3.33;;
45342;SDS011;31077;50.872;4.352;2022-12-07T04:18:49;5.82;;;3.42;;
45342;SDS011;31077;50.872;4.352;2022-12-07T04:21:18;3.75;;;2.70;;
45342;SDS011;31077;50.872;4.352;2022-12-07T04:23:44;4.35;;;3.05;;
45342;SDS011;31077;50.872;4.352;2022-12-07T04:26:12;5.03;;;3.47;;
45342;SDS011;31077;50.872;4.352;2022-12-07T04:28:38;4.68;;;3.13;;
45342;SDS011;31077;50.872;4.352;2022-12-07T04:31:04;4.22;;;2.75;;
45342;SDS011;31077;50.872;4.352;2022-12-07T04:33:30;4.82;;;3.10;;
45342;SDS011;31077;50.872;4.352;2022-12-07T04:35:56;4.65;;;2.95;;
45342;SDS011;31077;50.872;4.352;2022-12-07T04:38:21;5.15;;;3.20;;
45342;SDS011;31077;50.872;4.352;2022-12-07T04:40:47;3.22;;;2.72;;
45342;SDS011;31077;50.872;4.352;2022-12-07T04:43:13;5.05;;;3.42;;
45342;SDS011;31077;50.872;4.352;2022-12-07T04:45:40;5.95;;;3.45;;
45342;SDS011;31077;50.872;4.352;2022-12-07T04:48:11;4.32;;;2.88;;
45342;SDS011;31077;50.872;4.352;2022-12-07T04:50:37;3.38;;;2.55;;
45342;SDS011;31077;50.872;4.352;2022-12-07T04:53:03;3.50;;;2.80;;
45342;SDS011;31077;50.872;4.352;2022-12-07T04:55:29;6.03;;;3.13;;
45342;SDS011;31077;50.872;4.352;2022-12-07T04:57:54;7.13;;;3.10;;
45342;SDS011;31077;50.872;4.352;2022-12-07T05:00:20;9.30;;;3.13;;
45342;SDS011;31077;50.872;4.352;2022-12-07T05:02:46;7.60;;;3.45;;
45342;SDS011;31077;50.872;4.352;2022-12-07T05:05:12;3.58;;;2.40;;
45342;SDS011;31077;50.872;4.352;2022-12-07T05:07:38;3.88;;;2.90;;
45342;SDS011;31077;50.872;4.352;2022-12-07T05:10:04;6.05;;;2.88;;
45342;SDS011;31077;50.872;4.352;2022-12-07T05:12:30;4.05;;;3.00;;
45342;SDS011;31077;50.872;4.352;2022-12-07T05:14:56;5.63;;;2.53;;
45342;SDS011;31077;50.872;4.352;2022-12-07T05:17:23;4.10;;;2.90;;
45342;SDS011;31077;50.872;4.352;2022-12-07T05:19:48;4.60;;;3.08;;
45342;SDS011;31077;50.872;4.352;2022-12-07T05:22:14;3.65;;;2.70;;
45342;SDS011;31077;50.872;4.352;2022-12-07T05:24:40;3.22;;;2.42;;
45342;SDS011;31077;50.872;4.352;2022-12-07T05:27:06;4.60;;;2.92;;
45342;SDS011;31077;50.872;4.352;2022-12-07T05:29:32;3.95;;;2.90;;
45342;SDS011;31077;50.872;4.352;2022-12-07T05:31:57;4.50;;;2.83;;
45342;SDS011;31077;50.872;4.352;2022-12-07T05:34:23;4.13;;;2.90;;
45342;SDS011;31077;50.872;4.352;2022-12-07T05:36:49;3.88;;;2.33;;
45342;SDS011;31077;50.872;4.352;2022-12-07T05:39:15;7.47;;;3.50;;
45342;SDS011;31077;50.872;4.352;2022-12-07T05:41:41;5.43;;;3.15;;
45342;SDS011;31077;50.872;4.352;2022-12-07T05:44:25;4.55;;;2.83;;
45342;SDS011;31077;50.872;4.352;2022-12-07T05:46:51;4.63;;;2.55;;
45342;SDS011;31077;50.872;4.352;2022-12-07T05:49:17;5.35;;;2.67;;
45342;SDS011;31077;50.872;4.352;2022-12-07T05:51:43;4.97;;;3.03;;
45342;SDS011;31077;50.872;4.352;2022-12-07T05:54:09;9.68;;;2.90;;
45342;SDS011;31077;50.872;4.352;2022-12-07T05:56:35;5.45;;;2.60;;
45342;SDS011;31077;50.872;4.352;2022-12-07T05:59:00;4.40;;;2.67;;
45342;SDS011;31077;50.872;4.352;2022-12-07T06:01:45;4.13;;;2.70;;
45342;SDS011;31077;50.872;4.352;2022-12-07T06:04:11;3.60;;;2.83;;
45342;SDS011;31077;50.872;4.352;2022-12-07T06:06:37;3.10;;;2.30;;
45342;SDS011;31077;50.872;4.352;2022-12-07T06:09:04;2.67;;;2.33;;
45342;SDS011;31077;50.872;4.352;2022-12-07T06:11:30;3.50;;;2.60;;
45342;SDS011;31077;50.872;4.352;2022-12-07T06:14:14;3.78;;;2.30;;
45342;SDS011;31077;50.872;4.352;2022-12-07T06:16:40;9.25;;;3.17;;
45342;SDS011;31077;50.872;4.352;2022-12-07T06:19:06;7.10;;;2.53;;
45342;SDS011;31077;50.872;4.352;2022-12-07T06:21:31;6.97;;;2.42;;
45342;SDS011;31077;50.872;4.352;2022-12-07T06:23:57;4.80;;;2.78;;
45342;SDS011;31077;50.872;4.352;2022-12-07T06:26:23;12.10;;;3.20;;
45342;SDS011;31077;50.872;4.352;2022-12-07T06:28:49;13.15;;;2.80;;
45342;SDS011;31077;50.872;4.352;2022-12-07T06:31:15;25.38;;;3.17;;
45342;SDS011;31077;50.872;4.352;2022-12-07T06:33:41;26.38;;;2.72;;
45342;SDS011;31077;50.872;4.352;2022-12-07T06:36:07;10.52;;;2.80;;
45342;SDS011;31077;50.872;4.352;2022-12-07T06:38:34;4.45;;;2.38;;
45342;SDS011;31077;50.872;4.352;2022-12-07T06:41:00;4.45;;;2.67;;
45342;SDS011;31077;50.872;4.352;2022-12-07T06:43:25;8.60;;;2.97;;
45342;SDS011;31077;50.872;4.352;2022-12-07T06:45:52;8.00;;;2.60;;
45342;SDS011;31077;50.872;4.352;2022-12-07T06:48:18;6.70;;;2.83;;
45342;SDS011;31077;50.872;4.352;2022-12-07T06:50:44;13.07;;;2.80;;
45342;SDS011;31077;50.872;4.352;2022-12-07T06:53:11;6.07;;;2.22;;
45342;SDS011;31077;50.872;4.352;2022-12-07T06:55:39;5.13;;;2.53;;
45342;SDS011;31077;50.872;4.352;2022-12-07T06:58:08;7.82;;;2.83;;
45342;SDS011;31077;50.872;4.352;2022-12-07T07:00:34;6.32;;;2.60;;
45342;SDS011;31077;50.872;4.352;2022-12-07T07:03:00;7.00;;;2.72;;
45342;SDS011;31077;50.872;4.352;2022-12-07T07:05:28;7.00;;;2.70;;
45342;SDS011;31077;50.872;4.352;2022-12-07T07:07:54;6.70;;;2.42;;
45342;SDS011;31077;50.872;4.352;2022-12-07T07:10:20;3.45;;;2.00;;
45342;SDS011;31077;50.872;4.352;2022-12-07T07:12:46;10.52;;;2.85;;
45342;SDS011;31077;50.872;4.352;2022-12-07T07:15:12;3.63;;;2.42;;
45342;SDS011;31077;50.872;4.352;2022-12-07T07:17:38;7.55;;;2.30;;
45342;SDS011;31077;50.872;4.352;2022-12-07T07:20:04;3.65;;;2.58;;
45342;SDS011;31077;50.872;4.352;2022-12-07T07:22:30;4.78;;;2.63;;
45342;SDS011;31077;50.872;4.352;2022-12-07T07:24:56;5.72;;;2.67;;
45342;SDS011;31077;50.872;4.352;2022-12-07T07:27:21;4.53;;;2.70;;
45342;SDS011;31077;50.872;4.352;2022-12-07T07:29:47;3.53;;;2.25;;
45342;SDS011;31077;50.872;4.352;2022-12-07T07:32:13;6.82;;;2.70;;
45342;SDS011;31077;50.872;4.352;2022-12-07T07:34:39;4.82;;;2.38;;
45342;SDS011;31077;50.872;4.352;2022-12-07T07:37:05;6.47;;;2.50;;
45342;SDS011;31077;50.872;4.352;2022-12-07T07:39:31;4.85;;;2.58;;
45342;SDS011;31077;50.872;4.352;2022-12-07T07:41:56;4.43;;;2.58;;
45342;SDS011;31077;50.872;4.352;2022-12-07T07:44:22;4.30;;;2.65;;
45342;SDS011;31077;50.872;4.352;2022-12-07T07:46:48;5.60;;;2.63;;
45342;SDS011;31077;50.872;4.352;2022-12-07T07:49:13;4.57;;;2.78;;
45342;SDS011;31077;50.872;4.352;2022-12-07T07:51:39;4.65;;;2.80;;
45342;SDS011;31077;50.872;4.352;2022-12-07T07:54:05;5.60;;;2.53;;
45342;SDS011;31077;50.872;4.352;2022-12-07T07:56:31;4.20;;;2.45;;
45342;SDS011;31077;50.872;4.352;2022-12-07T07:58:57;4.43;;;2.42;;
45342;SDS011;31077;50.872;4.352;2022-12-07T08:01:22;5.40;;;2.50;;
45342;SDS011;31077;50.872;4.352;2022-12-07T08:03:48;4.70;;;2.55;;
45342;SDS011;31077;50.872;4.352;2022-12-07T08:06:14;3.75;;;2.30;;
45342;SDS011;31077;50.872;4.352;2022-12-07T08:08:40;4.88;;;2.70;;
45342;SDS011;31077;50.872;4.352;2022-12-07T08:11:07;3.63;;;2.58;;
45342;SDS011;31077;50.872;4.352;2022-12-07T08:13:34;6.60;;;2.97;;
45342;SDS011;31077;50.872;4.352;2022-12-07T08:16:04;9.02;;;3.05;;
45342;SDS011;31077;50.872;4.352;2022-12-07T08:18:34;3.28;;;2.28;;
45342;SDS011;31077;50.872;4.352;2022-12-07T08:21:04;3.22;;;2.28;;
45342;SDS011;31077;50.872;4.352;2022-12-07T08:23:34;4.57;;;2.55;;
45342;SDS011;31077;50.872;4.352;2022-12-07T08:26:01;6.95;;;2.85;;
45342;SDS011;31077;50.872;4.352;2022-12-07T08:28:28;4.43;;;2.65;;
45342;SDS011;31077;50.872;4.352;2022-12-07T08:30:59;4.28;;;2.75;;
45342;SDS011;31077;50.872;4.352;2022-12-07T08:33:25;7.35;;;3.10;;
45342;SDS011;31077;50.872;4.352;2022-12-07T08:35:51;4.25;;;2.55;;
45342;SDS011;31077;50.872;4.352;2022-12-07T08:38:17;5.00;;;3.00;;
45342;SDS011;31077;50.872;4.352;2022-12-07T08:40:43;4.00;;;2.58;;
45342;SDS011;31077;50.872;4.352;2022-12-07T08:43:09;5.40;;;2.55;;
45342;SDS011;31077;50.872;4.352;2022-12-07T08:45:34;5.13;;;2.65;;
45342;SDS011;31077;50.872;4.352;2022-12-07T08:48:05;3.67;;;2.42;;
45342;SDS011;31077;50.872;4.352;2022-12-07T08:50:33;6.20;;;3.58;;
45342;SDS011;31077;50.872;4.352;2022-12-07T08:53:00;4.78;;;2.83;;
45342;SDS011;31077;50.872;4.352;2022-12-07T08:55:27;4.32;;;2.75;;
45342;SDS011;31077;50.872;4.352;2022-12-07T08:57:54;7.22;;;2.80;;
45342;SDS011;31077;50.872;4.352;2022-12-07T09:00:22;5.70;;;3.10;;
45342;SDS011;31077;50.872;4.352;2022-12-07T09:02:47;3.85;;;2.53;;
45342;SDS011;31077;50.872;4.352;2022-12-07T09:05:13;3.95;;;2.60;;
45342;SDS011;31077;50.872;4.352;2022-12-07T09:07:46;7.40;;;3.35;;
45342;SDS011;31077;50.872;4.352;2022-12-07T09:10:16;4.40;;;2.88;;
45342;SDS011;31077;50.872;4.352;2022-12-07T09:12:43;5.68;;;2.55;;
45342;SDS011;31077;50.872;4.352;2022-12-07T09:15:08;5.25;;;2.88;;
45342;SDS011;31077;50.872;4.352;2022-12-07T09:17:34;4.88;;;2.70;;
45342;SDS011;31077;50.872;4.352;2022-12-07T09:20:01;5.15;;;2.85;;
45342;SDS011;31077;50.872;4.352;2022-12-07T09:22:29;6.20;;;3.30;;
45342;SDS011;31077;50.872;4.352;2022-12-07T09:24:56;3.10;;;2.22;;
45342;SDS011;31077;50.872;4.352;2022-12-07T09:27:22;4.55;;;2.80;;
45342;SDS011;31077;50.872;4.352;2022-12-07T09:29:48;4.47;;;2.65;;
45342;SDS011;31077;50.872;4.352;2022-12-07T09:32:14;4.18;;;2.50;;
45342;SDS011;31077;50.872;4.352;2022-12-07T09:34:40;4.63;;;2.30;;
45342;SDS011;31077;50.872;4.352;2022-12-07T09:37:06;5.93;;;2.95;;
45342;SDS011;31077;50.872;4.352;2022-12-07T09:39:31;5.50;;;2.70;;
45342;SDS011;31077;50.872;4.352;2022-12-07T09:41:57;4.88;;;2.70;;
45342;SDS011;31077;50.872;4.352;2022-12-07T09:44:27;4.65;;;2.65;;
45342;SDS011;31077;50.872;4.352;2022-12-07T09:46:53;3.25;;;2.20;;
45342;SDS011;31077;50.872;4.352;2022-12-07T09:49:24;3.92;;;2.60;;
45342;SDS011;31077;50.872;4.352;2022-12-07T09:52:27;3.97;;;2.58;;
45342;SDS011;31077;50.872;4.352;2022-12-07T09:54:53;4.80;;;2.50;;
45342;SDS011;31077;50.872;4.352;2022-12-07T09:57:29;5.88;;;2.53;;
45342;SDS011;31077;50.872;4.352;2022-12-07T09:59:59;5.60;;;2.72;;
45342;SDS011;31077;50.872;4.352;2022-12-07T10:05:03;7.32;;;3.00;;
45342;SDS011;31077;50.872;4.352;2022-12-07T10:07:30;3.45;;;2.33;;
45342;SDS011;31077;50.872;4.352;2022-12-07T10:09:56;4.60;;;2.95;;
45342;SDS011;31077;50.872;4.352;2022-12-07T10:12:22;5.18;;;2.22;;
45342;SDS011;31077;50.872;4.352;2022-12-07T10:17:41;5.97;;;2.50;;
45342;SDS011;31077;50.872;4.352;2022-12-07T10:20:17;5.30;;;2.70;;
45342;SDS011;31077;50.872;4.352;2022-12-07T10:22:57;4.43;;;2.45;;
45342;SDS011;31077;50.872;4.352;2022-12-07T10:25:31;4.53;;;2.42;;
45342;SDS011;31077;50.872;4.352;2022-12-07T10:28:03;3.78;;;2.40;;
45342;SDS011;31077;50.872;4.352;2022-12-07T10:35:55;3.92;;;1.92;;
45342;SDS011;31077;50.872;4.352;2022-12-07T10:38:22;4.63;;;2.45;;
45342;SDS011;31077;50.872;4.352;2022-12-07T10:41:02;6.93;;;2.80;;
45342;SDS011;31077;50.872;4.352;2022-12-07T10:43:30;4.13;;;2.22;;
45342;SDS011;31077;50.872;4.352;2022-12-07T10:48:34;3.63;;;2.00;;
45342;SDS011;31077;50.872;4.352;2022-12-07T10:54:12;5.03;;;2.55;;
45342;SDS011;31077;50.872;4.352;2022-12-07T10:59:32;6.10;;;2.13;;
45342;SDS011;31077;50.872;4.352;2022-12-07T11:12:59;4.25;;;2.50;;
45342;SDS011;31077;50.872;4.352;2022-12-07T11:29:21;3.45;;;1.88;;
45342;SDS011;31077;50.872;4.352;2022-12-07T11:37:49;4.43;;;2.42;;
45342;SDS011;31077;50.872;4.352;2022-12-07T11:40:23;3.35;;;2.00;;
45342;SDS011;31077;50.872;4.352;2022-12-07T11:45:31;3.63;;;1.95;;
45342;SDS011;31077;50.872;4.352;2022-12-07T11:50:34;2.85;;;1.52;;
45342;SDS011;31077;50.872;4.352;2022-12-07T11:53:06;2.72;;;1.50;;
45342;SDS011;31077;50.872;4.352;2022-12-07T11:58:40;3.65;;;1.95;;
45342;SDS011;31077;50.872;4.352;2022-12-07T12:01:29;3.80;;;2.20;;
45342;SDS011;31077;50.872;4.352;2022-12-07T12:06:35;3.97;;;1.83;;
45342;SDS011;31077;50.872;4.352;2022-12-07T12:09:04;3.50;;;1.80;;
45342;SDS011;31077;50.872;4.352;2022-12-07T12:11:56;3.35;;;1.73;;
45342;SDS011;31077;50.872;4.352;2022-12-07T12:22:56;4.38;;;2.00;;
45342;SDS011;31077;50.872;4.352;2022-12-07T12:25:31;3.55;;;1.60;;
45342;SDS011;31077;50.872;4.352;2022-12-07T12:28:02;2.97;;;1.50;;
45342;SDS011;31077;50.872;4.352;2022-12-07T12:30:33;3.00;;;1.70;;
45342;SDS011;31077;50.872;4.352;2022-12-07T12:33:13;3.85;;;1.50;;
45342;SDS011;31077;50.872;4.352;2022-12-07T12:47:00;2.67;;;1.58;;
45342;SDS011;31077;50.872;4.352;2022-12-07T12:52:53;2.15;;;1.40;;
45342;SDS011;31077;50.872;4.352;2022-12-07T12:58:29;3.13;;;1.70;;
45342;SDS011;31077;50.872;4.352;2022-12-07T13:04:17;2.53;;;1.45;;
45342;SDS011;31077;50.872;4.352;2022-12-07T13:06:54;2.15;;;1.35;;
45342;SDS011;31077;50.872;4.352;2022-12-07T13:09:21;2.40;;;1.30;;
45342;SDS011;31077;50.872;4.352;2022-12-07T13:11:55;2.35;;;1.40;;
45342;SDS011;31077;50.872;4.352;2022-12-07T13:19:57;1.70;;;1.30;;
45342;SDS011;31077;50.872;4.352;2022-12-07T13:24:58;1.55;;;1.05;;
45342;SDS011;31077;50.872;4.352;2022-12-07T13:27:35;2.97;;;1.20;;
45342;SDS011;31077;50.872;4.352;2022-12-07T13:30:09;2.92;;;1.20;;
45342;SDS011;31077;50.872;4.352;2022-12-07T13:32:41;2.50;;;1.30;;
45342;SDS011;31077;50.872;4.352;2022-12-07T13:35:28;2.40;;;1.42;;
45342;SDS011;31077;50.872;4.352;2022-12-07T13:37:54;2.80;;;1.50;;
45342;SDS011;31077;50.872;4.352;2022-12-07T13:40:21;3.42;;;1.33;;
45342;SDS011;31077;50.872;4.352;2022-12-07T13:42:48;1.90;;;1.25;;
45342;SDS011;31077;50.872;4.352;2022-12-07T13:50:54;2.28;;;1.38;;
45342;SDS011;31077;50.872;4.352;2022-12-07T13:53:23;2.60;;;1.30;;
45342;SDS011;31077;50.872;4.352;2022-12-07T13:55:53;2.35;;;1.40;;
45342;SDS011;31077;50.872;4.352;2022-12-07T13:58:19;2.97;;;1.35;;
45342;SDS011;31077;50.872;4.352;2022-12-07T14:00:45;2.67;;;1.65;;
45342;SDS011;31077;50.872;4.352;2022-12-07T14:05:36;2.25;;;1.40;;
45342;SDS011;31077;50.872;4.352;2022-12-07T14:08:04;1.95;;;1.17;;
45342;SDS011;31077;50.872;4.352;2022-12-07T14:13:34;3.75;;;1.40;;
45342;SDS011;31077;50.872;4.352;2022-12-07T14:16:03;2.90;;;1.45;;
45342;SDS011;31077;50.872;4.352;2022-12-07T14:18:43;1.15;;;0.90;;
45342;SDS011;31077;50.872;4.352;2022-12-07T14:23:35;2.45;;;1.08;;
45342;SDS011;31077;50.872;4.352;2022-12-07T14:26:08;3.55;;;1.60;;
45342;SDS011;31077;50.872;4.352;2022-12-07T14:28:38;2.95;;;1.50;;
45342;SDS011;31077;50.872;4.352;2022-12-07T14:31:12;1.90;;;1.17;;
45342;SDS011;31077;50.872;4.352;2022-12-07T14:33:40;1.57;;;0.90;;
45342;SDS011;31077;50.872;4.352;2022-12-07T14:36:08;2.40;;;1.33;;
45342;SDS011;31077;50.872;4.352;2022-12-07T14:38:35;2.70;;;1.38;;
45342;SDS011;31077;50.872;4.352;2022-12-07T14:41:03;1.50;;;0.88;;
45342;SDS011;31077;50.872;4.352;2022-12-07T14:43:53;1.83;;;1.10;;
45342;SDS011;31077;50.872;4.352;2022-12-07T14:46:19;2.17;;;1.10;;
45342;SDS011;31077;50.872;4.352;2022-12-07T14:48:45;1.45;;;1.00;;
45342;SDS011;31077;50.872;4.352;2022-12-07T14:51:11;2.47;;;1.15;;
45342;SDS011;31077;50.872;4.352;2022-12-07T14:53:40;1.42;;;0.82;;
45342;SDS011;31077;50.872;4.352;2022-12-07T14:56:09;3.35;;;1.63;;
45342;SDS011;31077;50.872;4.352;2022-12-07T14:58:35;5.13;;;0.95;;
45342;SDS011;31077;50.872;4.352;2022-12-07T15:01:01;3.33;;;0.95;;
45342;SDS011;31077;50.872;4.352;2022-12-07T15:03:27;1.48;;;0.93;;
45342;SDS011;31077;50.872;4.352;2022-12-07T15:05:52;0.93;;;0.80;;
45342;SDS011;31077;50.872;4.352;2022-12-07T15:08:18;2.88;;;1.10;;
45342;SDS011;31077;50.872;4.352;2022-12-07T15:10:46;1.23;;;0.80;;
45342;SDS011;31077;50.872;4.352;2022-12-07T15:13:12;2.17;;;1.08;;
45342;SDS011;31077;50.872;4.352;2022-12-07T15:15:56;2.35;;;1.10;;
45342;SDS011;31077;50.872;4.352;2022-12-07T15:18:22;1.92;;;0.95;;
45342;SDS011;31077;50.872;4.352;2022-12-07T15:20:49;2.22;;;1.23;;
45342;SDS011;31077;50.872;4.352;2022-12-07T15:23:15;2.08;;;0.95;;
45342;SDS011;31077;50.872;4.352;2022-12-07T15:25:44;2.40;;;1.38;;
45342;SDS011;31077;50.872;4.352;2022-12-07T15:28:12;2.67;;;1.13;;
45342;SDS011;31077;50.872;4.352;2022-12-07T15:30:39;2.90;;;1.30;;
45342;SDS011;31077;50.872;4.352;2022-12-07T15:33:08;2.05;;;1.15;;
45342;SDS011;31077;50.872;4.352;2022-12-07T15:35:44;1.77;;;1.00;;
45342;SDS011;31077;50.872;4.352;2022-12-07T15:38:10;2.05;;;1.30;;
45342;SDS011;31077;50.872;4.352;2022-12-07T15:40:37;1.38;;;0.90;;
45342;SDS011;31077;50.872;4.352;2022-12-07T15:43:03;1.90;;;1.08;;
45342;SDS011;31077;50.872;4.352;2022-12-07T15:45:29;1.33;;;0.75;;
45342;SDS011;31077;50.872;4.352;2022-12-07T15:47:55;1.52;;;1.02;;
45342;SDS011;31077;50.872;4.352;2022-12-07T15:50:21;1.38;;;1.08;;
45342;SDS011;31077;50.872;4.352;2022-12-07T15:52:47;2.60;;;1.38;;
45342;SDS011;31077;50.872;4.352;2022-12-07T15:55:14;2.20;;;1.40;;
45342;SDS011;31077;50.872;4.352;2022-12-07T15:57:40;2.78;;;1.35;;
45342;SDS011;31077;50.872;4.352;2022-12-07T16:00:06;1.35;;;0.93;;
45342;SDS011;31077;50.872;4.352;2022-12-07T16:02:33;3.35;;;2.08;;
45342;SDS011;31077;50.872;4.352;2022-12-07T16:05:01;2.03;;;1.10;;
45342;SDS011;31077;50.872;4.352;2022-12-07T16:07:26;1.50;;;1.05;;
45342;SDS011;31077;50.872;4.352;2022-12-07T16:09:52;1.63;;;1.02;;
45342;SDS011;31077;50.872;4.352;2022-12-07T16:12:18;2.95;;;1.33;;
45342;SDS011;31077;50.872;4.352;2022-12-07T16:14:44;1.88;;;1.05;;
45342;SDS011;31077;50.872;4.352;2022-12-07T16:17:10;3.08;;;1.35;;
45342;SDS011;31077;50.872;4.352;2022-12-07T16:19:36;1.15;;;1.02;;
45342;SDS011;31077;50.872;4.352;2022-12-07T16:22:02;1.98;;;1.35;;
45342;SDS011;31077;50.872;4.352;2022-12-07T16:24:29;2.42;;;1.15;;
45342;SDS011;31077;50.872;4.352;2022-12-07T16:26:55;1.77;;;1.10;;
45342;SDS011;31077;50.872;4.352;2022-12-07T16:29:21;2.20;;;1.30;;
45342;SDS011;31077;50.872;4.352;2022-12-07T16:31:48;1.98;;;1.33;;
45342;SDS011;31077;50.872;4.352;2022-12-07T16:34:15;1.75;;;1.23;;
45342;SDS011;31077;50.872;4.352;2022-12-07T16:36:41;2.72;;;1.10;;
45342;SDS011;31077;50.872;4.352;2022-12-07T16:39:08;2.85;;;1.55;;
45342;SDS011;31077;50.872;4.352;2022-12-07T16:41:34;3.10;;;1.60;;
45342;SDS011;31077;50.872;4.352;2022-12-07T16:44:04;2.47;;;1.50;;
45342;SDS011;31077;50.872;4.352;2022-12-07T16:46:31;2.53;;;1.38;;
45342;SDS011;31077;50.872;4.352;2022-12-07T16:48:58;3.03;;;1.88;;
45342;SDS011;31077;50.872;4.352;2022-12-07T16:51:24;2.75;;;1.80;;
45342;SDS011;31077;50.872;4.352;2022-12-07T16:53:50;2.78;;;1.45;;
45342;SDS011;31077;50.872;4.352;2022-12-07T16:56:18;2.50;;;1.63;;
45342;SDS011;31077;50.872;4.352;2022-12-07T16:58:44;2.63;;;1.77;;
45342;SDS011;31077;50.872;4.352;2022-12-07T17:01:12;3.63;;;1.70;;
45342;SDS011;31077;50.872;4.352;2022-12-07T17:03:42;3.60;;;1.98;;
45342;SDS011;31077;50.872;4.352;2022-12-07T17:06:12;3.95;;;2.03;;
45342;SDS011;31077;50.872;4.352;2022-12-07T17:08:40;3.65;;;1.85;;
45342;SDS011;31077;50.872;4.352;2022-12-07T17:11:10;3.53;;;1.98;;
45342;SDS011;31077;50.872;4.352;2022-12-07T17:13:36;2.95;;;1.90;;
45342;SDS011;31077;50.872;4.352;2022-12-07T17:16:21;3.15;;;1.98;;
45342;SDS011;31077;50.872;4.352;2022-12-07T17:18:46;3.45;;;1.80;;
45342;SDS011;31077;50.872;4.352;2022-12-07T17:21:12;3.17;;;1.90;;
45342;SDS011;31077;50.872;4.352;2022-12-07T17:23:38;2.85;;;1.73;;
45342;SDS011;31077;50.872;4.352;2022-12-07T17:26:05;3.30;;;2.05;;
45342;SDS011;31077;50.872;4.352;2022-12-07T17:28:32;3.80;;;2.03;;